Etusivu
METAR-TAF:

METAR-TAF

Lentoasemat :

Eros Airport

Windhoek, Namibia

Leveyspiiri: 22-36-44S, Pituuspiiri: 017-04-50E, korkeus merenpinnasta: 1699 m

Tämänhetkinen sää

Tämä raportti tehtiin 58 minuuttia sitten, kello 07.00 UTC
tyyntä
Lämpötila 16°C
Kosteus 31%
Ilmanpaine 1029 hPa
Näkyvyys 10 km tai enemmän
ei pilviä alle 1500 m:ssä eikä cumulonimbus-pilviä

METAR: FYWE 260700Z 00000KT CAVOK 16/M01 Q1029

Aika: 08:58 (07:58 UTC)

Sääennuste

Tämä raportti tehtiin 2 tuntia ja 58 minuuttia sitten, kello 05.00 UTC
Ennuste voimassa 26. päivästä klo 06 UTC - 26. päivään klo 15 UTC
Tuuli kn pohjoisesta
Näkyvyys 10 km tai enemmän
ei pilviä alle 1500 m:ssä eikä cumulonimbus-pilviä
Tulossa
26. päivästä klo 08 UTC - 26. päivään klo 10 UTC
Tuuli 12 kn koillisesta

TAF: FYWE 260500Z 2606/2615 00000KT CAVOK BECMG 2608/2610 04012KT

Säähavainnot ja -ennusteet yli 4000 lentoasemalta (METAR- ja TAF-raportit).

Käytössä olevat sääasemat on merkitty karttaan keltaisilla ja punaisilla pisteillä.

Aseta hiiri pisteen päälle nähdäksesi sääaseman nimen.

Klikkaa sitten nähdäksesi säähavainnot ja -ennusteet.

Kartan vaihtaminen: klikkaa mustalla rastilla varustettuja vihreitä pisteitä, niin voit zoomata sisään; viivalla varustettua vihreää pistettä, niin voit zoomata ulos tai vihreitä nuolia, niin pääset viereisille kartoille.


METAR-TAF: